createdAt,value
2017-10-19T00:00:12.862Z,1030.23
2017-10-19T00:01:12.854Z,1030.24
2017-10-19T00:02:12.843Z,1030.24
2017-10-19T00:03:12.844Z,1030.25
2017-10-19T00:04:12.826Z,1030.24
2017-10-19T00:05:12.817Z,1030.24
2017-10-19T00:06:12.811Z,1030.28
2017-10-19T00:07:12.834Z,1030.26
2017-10-19T00:08:12.791Z,1030.29
2017-10-19T00:09:12.784Z,1030.26
2017-10-19T00:10:12.775Z,1030.27
2017-10-19T00:11:12.765Z,1030.26
2017-10-19T00:12:12.762Z,1030.26
2017-10-19T00:13:12.773Z,1030.28
2017-10-19T00:14:12.741Z,1030.27
2017-10-19T00:15:12.731Z,1030.28
2017-10-19T00:16:12.723Z,1030.26
2017-10-19T00:17:12.713Z,1030.29
2017-10-19T00:18:12.702Z,1030.3
2017-10-19T00:19:12.694Z,1030.31
2017-10-19T00:20:12.686Z,1030.28
2017-10-19T00:21:12.678Z,1030.34
2017-10-19T00:22:12.670Z,1030.31
2017-10-19T00:23:12.659Z,1030.3
2017-10-19T00:24:12.652Z,1030.3
2017-10-19T00:25:12.643Z,1030.28
2017-10-19T00:26:12.635Z,1030.3
2017-10-19T00:27:12.625Z,1030.28
2017-10-19T00:28:12.617Z,1030.28
2017-10-19T00:29:12.608Z,1030.25
2017-10-19T00:30:12.597Z,1030.24
2017-10-19T00:31:12.589Z,1030.22
2017-10-19T00:32:12.586Z,1030.23
2017-10-19T00:33:12.573Z,1030.23
2017-10-19T00:34:12.563Z,1030.24
2017-10-19T00:35:12.554Z,1030.24
2017-10-19T00:36:12.547Z,1030.26
2017-10-19T00:37:12.537Z,1030.27
2017-10-19T00:38:12.527Z,1030.26
2017-10-19T00:39:12.519Z,1030.3
2017-10-19T00:40:12.509Z,1030.28
2017-10-19T00:41:12.500Z,1030.29
2017-10-19T00:42:12.493Z,1030.3
2017-10-19T00:43:12.485Z,1030.31
2017-10-19T00:44:12.474Z,1030.28
2017-10-19T00:45:12.467Z,1030.29
2017-10-19T00:46:12.456Z,1030.31
2017-10-19T00:47:12.447Z,1030.3
2017-10-19T00:48:12.438Z,1030.32
2017-10-19T00:49:12.430Z,1030.33
2017-10-19T00:50:12.423Z,1030.28
2017-10-19T00:51:12.415Z,1030.25
2017-10-19T00:52:12.403Z,1030.26
2017-10-19T00:53:12.405Z,1030.23
2017-10-19T00:54:12.387Z,1030.26
2017-10-19T00:55:12.378Z,1030.26
2017-10-19T00:56:12.368Z,1030.24
2017-10-19T00:57:12.361Z,1030.22
2017-10-19T00:58:12.350Z,1030.24
2017-10-19T00:59:12.341Z,1030.21
2017-10-19T01:00:12.332Z,1030.2
2017-10-19T01:01:12.323Z,1030.2
2017-10-19T01:02:12.314Z,1030.17
2017-10-19T01:03:12.305Z,1030.21
2017-10-19T01:04:12.297Z,1030.21
2017-10-19T01:05:12.296Z,1030.19
2017-10-19T01:06:12.277Z,1030.21
2017-10-19T01:07:12.268Z,1030.22
2017-10-19T01:08:12.260Z,1030.18
2017-10-19T01:09:12.251Z,1030.14
2017-10-19T01:10:12.243Z,1030.16
2017-10-19T01:11:12.235Z,1030.2
2017-10-19T01:12:12.225Z,1030.1
2017-10-19T01:13:12.216Z,1030.14
2017-10-19T01:14:12.207Z,1030.1
2017-10-19T01:15:12.197Z,1030.15
2017-10-19T01:16:12.190Z,1030.18
2017-10-19T01:17:12.179Z,1030.18
2017-10-19T01:18:12.170Z,1030.22
2017-10-19T01:19:12.161Z,1030.19
2017-10-19T01:20:12.151Z,1030.17
2017-10-19T01:21:12.143Z,1030.18
2017-10-19T01:22:12.135Z,1030.17
2017-10-19T01:23:12.125Z,1030.17
2017-10-19T01:24:12.117Z,1030.18
2017-10-19T01:25:12.108Z,1030.17
2017-10-19T01:26:12.098Z,1030.19
2017-10-19T01:27:12.089Z,1030.16
2017-10-19T01:28:12.080Z,1030.21
2017-10-19T01:29:12.071Z,1030.23
2017-10-19T01:30:12.064Z,1030.21
2017-10-19T01:31:12.054Z,1030.19
2017-10-19T01:32:12.047Z,1030.2
2017-10-19T01:33:12.036Z,1030.17
2017-10-19T01:34:12.025Z,1030.19
2017-10-19T01:35:12.016Z,1030.16
2017-10-19T01:36:12.008Z,1030.15
2017-10-19T01:37:11.998Z,1030.11
2017-10-19T01:38:11.991Z,1030.11
2017-10-19T01:39:11.981Z,1030.09
2017-10-19T01:40:11.973Z,1030.09
2017-10-19T01:41:11.964Z,1030.09
2017-10-19T01:42:11.954Z,1030.1
2017-10-19T01:43:11.944Z,1030.09
2017-10-19T01:44:11.936Z,1030.09
2017-10-19T01:45:11.927Z,1030.07
2017-10-19T01:46:11.916Z,1030.11
2017-10-19T01:47:11.907Z,1030.13
2017-10-19T01:48:11.898Z,1030.15
2017-10-19T01:49:11.889Z,1030.18
2017-10-19T01:50:11.881Z,1030.18
2017-10-19T01:51:11.872Z,1030.19
2017-10-19T01:52:11.863Z,1030.18
2017-10-19T01:53:11.854Z,1030.15
2017-10-19T01:54:11.843Z,1030.21
2017-10-19T01:55:11.833Z,1030.19
2017-10-19T01:56:11.826Z,1030.19
2017-10-19T01:57:11.815Z,1030.18
2017-10-19T01:58:12.058Z,1030.2
2017-10-19T01:59:11.799Z,1030.13
2017-10-19T02:00:11.790Z,1030.15
2017-10-19T02:01:11.781Z,1030.14
2017-10-19T02:02:11.770Z,1030.15
2017-10-19T02:03:11.761Z,1030.14
2017-10-19T02:04:11.751Z,1030.15
2017-10-19T02:05:11.744Z,1030.16
2017-10-19T02:06:11.735Z,1030.14
2017-10-19T02:07:11.726Z,1030.17
2017-10-19T02:08:11.714Z,1030.18
2017-10-19T02:09:11.705Z,1030.16
2017-10-19T02:10:11.697Z,1030.2
2017-10-19T02:11:11.690Z,1030.2
2017-10-19T02:12:11.682Z,1030.19
2017-10-19T02:13:11.671Z,1030.18
2017-10-19T02:14:11.660Z,1030.21
2017-10-19T02:15:11.650Z,1030.18
2017-10-19T02:16:11.642Z,1030.15
2017-10-19T02:17:11.633Z,1030.17
2017-10-19T02:18:11.625Z,1030.17
2017-10-19T02:19:11.613Z,1030.16
2017-10-19T02:20:11.606Z,1030.18
2017-10-19T02:21:11.597Z,1030.17
2017-10-19T02:22:11.587Z,1030.2
2017-10-19T02:23:11.578Z,1030.19
2017-10-19T02:24:11.570Z,1030.18
2017-10-19T02:25:11.562Z,1030.18
2017-10-19T02:26:11.551Z,1030.22
2017-10-19T02:27:11.542Z,1030.18
2017-10-19T02:28:11.536Z,1030.17
2017-10-19T02:29:11.774Z,1030.2
2017-10-19T02:30:11.513Z,1030.21
2017-10-19T02:31:11.510Z,1030.23
2017-10-19T02:32:11.495Z,1030.26
2017-10-19T02:33:11.524Z,1030.26
2017-10-19T02:34:11.476Z,1030.26
2017-10-19T02:35:11.467Z,1030.27
2017-10-19T02:36:11.459Z,1030.28
2017-10-19T02:37:11.448Z,1030.29
2017-10-19T02:38:11.442Z,1030.3
2017-10-19T02:39:11.431Z,1030.31
2017-10-19T02:40:11.423Z,1030.3
2017-10-19T02:41:11.412Z,1030.33
2017-10-19T02:42:11.402Z,1030.3
2017-10-19T02:43:11.402Z,1030.31
2017-10-19T02:44:11.385Z,1030.3
2017-10-19T02:45:11.374Z,1030.34
2017-10-19T02:46:11.367Z,1030.36
2017-10-19T02:47:11.376Z,1030.34
2017-10-19T02:48:11.347Z,1030.31
2017-10-19T02:49:11.337Z,1030.33
2017-10-19T02:50:11.327Z,1030.34
2017-10-19T02:51:11.320Z,1030.36
2017-10-19T02:52:11.309Z,1030.37
2017-10-19T02:53:11.300Z,1030.36
2017-10-19T02:54:11.292Z,1030.36
2017-10-19T02:55:11.280Z,1030.36
2017-10-19T02:56:11.275Z,1030.35
2017-10-19T02:57:11.263Z,1030.38
2017-10-19T02:58:11.253Z,1030.39
2017-10-19T02:59:11.246Z,1030.43
2017-10-19T03:00:11.484Z,1030.39
2017-10-19T03:01:11.224Z,1030.45
2017-10-19T03:02:11.214Z,1030.43
2017-10-19T03:03:11.205Z,1030.48
2017-10-19T03:04:11.195Z,1030.48
2017-10-19T03:05:11.186Z,1030.5
2017-10-19T03:06:11.176Z,1030.49
2017-10-19T03:07:11.167Z,1030.51
2017-10-19T03:08:11.159Z,1030.54
2017-10-19T03:09:11.148Z,1030.55
2017-10-19T03:10:11.137Z,1030.59
2017-10-19T03:11:11.128Z,1030.61
2017-10-19T03:12:11.123Z,1030.66
2017-10-19T03:13:11.111Z,1030.61
2017-10-19T03:14:11.101Z,1030.64
2017-10-19T03:15:11.091Z,1030.66
2017-10-19T03:16:11.082Z,1030.66
2017-10-19T03:17:11.072Z,1030.66
2017-10-19T03:18:11.060Z,1030.67
2017-10-19T03:19:11.052Z,1030.7
2017-10-19T03:20:11.042Z,1030.71
2017-10-19T03:21:11.032Z,1030.75
2017-10-19T03:22:11.025Z,1030.72
2017-10-19T03:23:11.015Z,1030.71
2017-10-19T03:24:11.005Z,1030.68
2017-10-19T03:25:10.994Z,1030.75
2017-10-19T03:26:10.986Z,1030.73
2017-10-19T03:27:10.977Z,1030.71
2017-10-19T03:28:10.972Z,1030.74
2017-10-19T03:29:10.957Z,1030.73
2017-10-19T03:30:10.951Z,1030.73
2017-10-19T03:31:10.942Z,1030.73
2017-10-19T03:32:10.926Z,1030.75
2017-10-19T03:33:10.917Z,1030.77
2017-10-19T03:34:10.910Z,1030.76
2017-10-19T03:35:10.899Z,1030.79
2017-10-19T03:36:10.893Z,1030.78
2017-10-19T03:37:10.880Z,1030.81
2017-10-19T03:38:10.869Z,1030.79
2017-10-19T03:39:10.859Z,1030.76
2017-10-19T03:40:10.849Z,1030.8
2017-10-19T03:41:10.845Z,1030.78
2017-10-19T03:42:10.831Z,1030.74
2017-10-19T03:43:10.821Z,1030.8
2017-10-19T03:44:10.813Z,1030.8
2017-10-19T03:45:10.803Z,1030.75
2017-10-19T03:46:10.792Z,1030.78
2017-10-19T03:47:10.783Z,1030.79
2017-10-19T03:48:10.772Z,1030.75
2017-10-19T03:49:10.763Z,1030.74
2017-10-19T03:50:10.754Z,1030.75
2017-10-19T03:51:10.745Z,1030.76
2017-10-19T03:52:10.734Z,1030.77
2017-10-19T03:53:10.731Z,1030.82
2017-10-19T03:54:10.714Z,1030.82
2017-10-19T03:55:10.704Z,1030.84
2017-10-19T03:56:10.696Z,1030.86
2017-10-19T03:57:10.685Z,1030.85
2017-10-19T03:58:10.677Z,1030.84
2017-10-19T03:59:10.667Z,1030.84
2017-10-19T04:00:10.658Z,1030.84
2017-10-19T04:01:10.647Z,1030.84
2017-10-19T04:02:10.638Z,1030.8
2017-10-19T04:03:10.629Z,1030.77
2017-10-19T04:04:10.618Z,1030.76
2017-10-19T04:05:10.607Z,1030.74
2017-10-19T04:06:10.599Z,1030.73
2017-10-19T04:07:10.590Z,1030.7
2017-10-19T04:08:10.580Z,1030.73
2017-10-19T04:09:10.570Z,1030.67
2017-10-19T04:10:10.560Z,1030.67
2017-10-19T04:11:10.550Z,1030.7
2017-10-19T04:12:10.540Z,1030.69
2017-10-19T04:13:10.529Z,1030.71
2017-10-19T04:14:10.522Z,1030.69
2017-10-19T04:15:10.513Z,1030.73
2017-10-19T04:16:10.501Z,1030.73
2017-10-19T04:17:10.491Z,1030.72
2017-10-19T04:18:10.483Z,1030.72
2017-10-19T04:19:10.471Z,1030.7
2017-10-19T04:20:10.463Z,1030.73
2017-10-19T04:21:10.457Z,1030.7
2017-10-19T04:22:10.442Z,1030.66
2017-10-19T04:23:10.432Z,1030.66
2017-10-19T04:24:10.422Z,1030.58
2017-10-19T04:25:10.419Z,1030.54
2017-10-19T04:26:10.404Z,1030.53
2017-10-19T04:27:10.394Z,1030.47
2017-10-19T04:28:10.384Z,1030.45
2017-10-19T04:29:10.374Z,1030.42
2017-10-19T04:30:10.363Z,1030.4
2017-10-19T04:31:10.357Z,1030.37
2017-10-19T04:32:10.349Z,1030.34
2017-10-19T04:33:10.335Z,1030.34
2017-10-19T04:34:10.329Z,1030.31
2017-10-19T04:35:10.316Z,1030.24
2017-10-19T04:36:10.307Z,1030.2
2017-10-19T04:37:10.299Z,1030.12
2017-10-19T04:38:10.286Z,1030.1
2017-10-19T04:39:10.281Z,1030.04
2017-10-19T04:40:10.271Z,1029.97
2017-10-19T04:41:10.259Z,1029.95
2017-10-19T04:42:10.248Z,1029.93
2017-10-19T04:43:10.243Z,1029.85
2017-10-19T04:44:10.229Z,1029.84
2017-10-19T04:45:10.218Z,1029.85
2017-10-19T04:46:10.212Z,1029.9
2017-10-19T04:47:10.204Z,1029.88
2017-10-19T04:48:10.191Z,1029.89
2017-10-19T04:49:10.183Z,1029.86
2017-10-19T04:50:10.172Z,1029.85
2017-10-19T04:51:10.163Z,1029.86
2017-10-19T04:52:10.153Z,1029.83
2017-10-19T04:53:10.144Z,1029.8
2017-10-19T04:54:10.136Z,1029.76
2017-10-19T04:55:10.128Z,1029.7
2017-10-19T04:56:10.117Z,1029.72
2017-10-19T04:57:10.108Z,1029.68
2017-10-19T04:58:10.098Z,1029.66
2017-10-19T04:59:10.089Z,1029.64
2017-10-19T05:00:10.079Z,1029.65
2017-10-19T05:01:10.071Z,1029.61
2017-10-19T05:02:10.063Z,1029.62
2017-10-19T05:03:10.053Z,1029.6
2017-10-19T05:04:10.044Z,1029.55
2017-10-19T05:05:10.036Z,1029.52
2017-10-19T05:06:10.025Z,1029.53
2017-10-19T05:07:10.018Z,1029.49
2017-10-19T05:08:10.008Z,1029.48
2017-10-19T05:09:09.999Z,1029.45
2017-10-19T05:10:09.989Z,1029.41
2017-10-19T05:11:09.980Z,1029.39
2017-10-19T05:12:09.971Z,1029.39
2017-10-19T05:13:09.963Z,1029.35
2017-10-19T05:14:09.957Z,1029.35
2017-10-19T05:15:09.949Z,1029.29
2017-10-19T05:16:09.938Z,1029.27
2017-10-19T05:17:09.929Z,1029.27
2017-10-19T05:18:09.921Z,1029.32
2017-10-19T05:19:09.910Z,1029.29
2017-10-19T05:20:09.901Z,1029.4
2017-10-19T05:21:09.894Z,1029.4
2017-10-19T05:22:09.884Z,1029.4
2017-10-19T05:23:09.876Z,1029.44
2017-10-19T05:24:09.868Z,1029.44
2017-10-19T05:25:09.857Z,1029.48
2017-10-19T05:26:09.849Z,1029.52
2017-10-19T05:27:09.841Z,1029.58
2017-10-19T05:28:09.833Z,1029.62
2017-10-19T05:29:09.823Z,1029.61
2017-10-19T05:30:09.816Z,1029.62
2017-10-19T05:31:09.808Z,1029.66
2017-10-19T05:32:09.799Z,1029.65
2017-10-19T05:33:09.791Z,1029.63
2017-10-19T05:34:09.784Z,1029.65
2017-10-19T05:35:09.774Z,1029.7
2017-10-19T05:36:09.765Z,1029.71
2017-10-19T05:37:09.757Z,1029.74
2017-10-19T05:38:09.748Z,1029.69
2017-10-19T05:39:09.740Z,1029.79
2017-10-19T05:40:09.730Z,1029.75
2017-10-19T05:41:09.721Z,1029.74
2017-10-19T05:42:09.715Z,1029.8
2017-10-19T05:43:09.705Z,1029.81
2017-10-19T05:44:09.695Z,1029.82
2017-10-19T05:45:09.690Z,1029.77
2017-10-19T05:46:09.678Z,1029.8
2017-10-19T05:47:09.668Z,1029.77
2017-10-19T05:48:09.668Z,1029.75
2017-10-19T05:49:09.652Z,1029.71
2017-10-19T05:50:09.646Z,1029.69
2017-10-19T05:51:09.635Z,1029.69
2017-10-19T05:52:09.631Z,1029.69
2017-10-19T05:53:09.620Z,1029.73
2017-10-19T05:54:09.609Z,1029.7
2017-10-19T05:55:09.600Z,1029.71
2017-10-19T05:56:09.594Z,1029.76
2017-10-19T05:57:09.586Z,1029.78
2017-10-19T05:58:09.575Z,1029.86
2017-10-19T05:59:09.567Z,1029.89
2017-10-19T06:00:09.559Z,1029.89
2017-10-19T06:01:09.574Z,1029.86
2017-10-19T06:02:09.542Z,1029.87
2017-10-19T06:03:09.535Z,1029.87
2017-10-19T06:04:09.526Z,1029.83
2017-10-19T06:05:09.517Z,1029.82
2017-10-19T06:06:09.508Z,1029.83
2017-10-19T06:07:09.500Z,1029.85
2017-10-19T06:08:09.497Z,1029.86
2017-10-19T06:09:09.483Z,1029.89
2017-10-19T06:10:09.475Z,1029.92
2017-10-19T06:11:09.467Z,1029.93
2017-10-19T06:12:09.458Z,1029.96
2017-10-19T06:13:09.448Z,1029.98
2017-10-19T06:14:09.441Z,1029.99
2017-10-19T06:15:09.433Z,1030.01
2017-10-19T06:16:09.422Z,1030
2017-10-19T06:17:09.414Z,1029.98
2017-10-19T06:18:09.407Z,1029.93
2017-10-19T06:19:09.398Z,1029.92
2017-10-19T06:20:09.390Z,1029.9
2017-10-19T06:21:09.382Z,1029.86
2017-10-19T06:22:09.374Z,1029.77
2017-10-19T06:23:09.366Z,1029.8
2017-10-19T06:24:09.358Z,1029.73
2017-10-19T06:25:09.351Z,1029.75
2017-10-19T06:26:09.344Z,1029.7
2017-10-19T06:27:09.331Z,1029.69
2017-10-19T06:28:09.323Z,1029.66
2017-10-19T06:29:09.317Z,1029.68
2017-10-19T06:30:09.308Z,1029.68
2017-10-19T06:31:09.300Z,1029.73
2017-10-19T06:32:09.291Z,1029.75
2017-10-19T06:33:09.283Z,1029.78
2017-10-19T06:34:09.276Z,1029.73
2017-10-19T06:35:09.267Z,1029.75
2017-10-19T06:36:09.257Z,1029.72
2017-10-19T06:37:09.250Z,1029.7
2017-10-19T06:38:09.493Z,1029.71
2017-10-19T06:39:09.235Z,1029.66
2017-10-19T06:40:09.226Z,1029.66
2017-10-19T06:41:09.219Z,1029.65
2017-10-19T06:42:09.208Z,1029.67
2017-10-19T06:43:09.200Z,1029.71
2017-10-19T06:44:09.194Z,1029.69
2017-10-19T06:45:09.191Z,1029.71
2017-10-19T06:46:09.178Z,1029.67
2017-10-19T06:47:09.176Z,1029.63
2017-10-19T06:48:09.164Z,1029.57
2017-10-19T06:49:09.152Z,1029.54
2017-10-19T06:50:09.147Z,1029.48
2017-10-19T06:51:09.138Z,1029.45
2017-10-19T06:52:09.131Z,1029.36
2017-10-19T06:53:09.122Z,1029.35
2017-10-19T06:54:09.113Z,1029.32
2017-10-19T06:55:09.107Z,1029.28
2017-10-19T06:56:09.100Z,1029.26
2017-10-19T06:57:09.091Z,1029.26
2017-10-19T06:58:09.084Z,1029.24
2017-10-19T06:59:09.076Z,1029.26
2017-10-19T07:00:09.069Z,1029.25
2017-10-19T07:01:09.061Z,1029.26
2017-10-19T07:02:09.056Z,1029.25
2017-10-19T07:03:09.044Z,1029.22
2017-10-19T07:04:09.044Z,1029.2
2017-10-19T07:05:09.028Z,1029.17
2017-10-19T07:06:09.023Z,1029.17
2017-10-19T07:07:09.016Z,1029.22
2017-10-19T07:08:09.008Z,1029.23
2017-10-19T07:09:09.002Z,1029.23
2017-10-19T07:10:08.998Z,1029.23
2017-10-19T07:11:08.983Z,1029.24
2017-10-19T07:12:08.979Z,1029.24
2017-10-19T07:13:08.969Z,1029.15
2017-10-19T07:14:08.967Z,1029.09
2017-10-19T07:15:08.954Z,1029.02
2017-10-19T07:16:08.947Z,1029.03
2017-10-19T07:17:08.940Z,1029
2017-10-19T07:18:08.931Z,1029.02
2017-10-19T07:19:08.926Z,1029.04
2017-10-19T07:20:08.918Z,1029.06
2017-10-19T07:21:08.911Z,1029.07
2017-10-19T07:22:08.908Z,1029.06
2017-10-19T07:23:08.895Z,1029.09
2017-10-19T07:24:08.889Z,1029.05
2017-10-19T07:25:08.881Z,1029.07
2017-10-19T07:26:08.874Z,1029.05
2017-10-19T07:27:08.867Z,1029.02
2017-10-19T07:28:08.862Z,1029.07
2017-10-19T07:29:08.853Z,1029.04
2017-10-19T07:30:08.844Z,1029.04
2017-10-19T07:31:08.836Z,1029
2017-10-19T07:32:08.830Z,1028.98
2017-10-19T07:33:08.821Z,1028.97
2017-10-19T07:34:08.816Z,1028.91
2017-10-19T07:35:08.809Z,1028.9
2017-10-19T07:36:08.802Z,1028.94
2017-10-19T07:37:08.794Z,1028.89
2017-10-19T07:38:08.787Z,1028.81
2017-10-19T07:39:08.780Z,1028.73
2017-10-19T07:40:08.779Z,1028.73
2017-10-19T07:41:08.766Z,1028.69
2017-10-19T07:42:08.759Z,1028.65
2017-10-19T07:43:08.752Z,1028.59
2017-10-19T07:44:08.744Z,1028.49
2017-10-19T07:45:08.940Z,1028.44
2017-10-19T07:46:08.733Z,1028.44
2017-10-19T07:47:08.725Z,1028.41
2017-10-19T07:48:08.719Z,1028.41
2017-10-19T07:49:08.712Z,1028.42
2017-10-19T07:50:08.705Z,1028.46
2017-10-19T07:51:08.698Z,1028.51
2017-10-19T07:52:08.692Z,1028.47
2017-10-19T07:53:08.684Z,1028.48
2017-10-19T07:54:08.679Z,1028.43
2017-10-19T07:55:08.677Z,1028.45
2017-10-19T07:56:08.666Z,1028.46
2017-10-19T07:57:08.660Z,1028.48
2017-10-19T07:58:08.654Z,1028.43
2017-10-19T07:59:08.645Z,1028.42
2017-10-19T08:00:08.639Z,1028.45
2017-10-19T08:01:08.633Z,1028.48
2017-10-19T08:02:08.627Z,1028.5
2017-10-19T08:03:08.622Z,1028.46
2017-10-19T08:04:08.615Z,1028.47
2017-10-19T08:05:08.609Z,1028.41
2017-10-19T08:06:08.602Z,1028.37
2017-10-19T08:07:08.594Z,1028.31
2017-10-19T08:08:08.595Z,1028.27
2017-10-19T08:09:08.583Z,1028.25
2017-10-19T08:10:08.575Z,1028.29
2017-10-19T08:11:08.569Z,1028.29
2017-10-19T08:12:08.563Z,1028.26
2017-10-19T08:13:08.557Z,1028.23
2017-10-19T08:14:08.552Z,1028.19
2017-10-19T08:15:08.546Z,1028.19
2017-10-19T08:16:08.540Z,1028.15
2017-10-19T08:17:08.533Z,1028.1
2017-10-19T08:18:08.526Z,1028.05
2017-10-19T08:19:08.519Z,1027.95
2017-10-19T08:20:08.514Z,1027.82
2017-10-19T08:21:08.507Z,1027.76
2017-10-19T08:22:08.504Z,1027.7
2017-10-19T08:23:08.497Z,1027.6
2017-10-19T08:24:08.513Z,1027.56
2017-10-19T08:25:08.485Z,1027.48
2017-10-19T08:26:08.478Z,1027.41
2017-10-19T08:27:08.473Z,1027.45
2017-10-19T08:28:08.471Z,1027.39
2017-10-19T08:29:08.460Z,1027.41
2017-10-19T08:30:08.458Z,1027.39
2017-10-19T08:31:08.453Z,1027.34
2017-10-19T08:32:08.444Z,1027.42
2017-10-19T08:33:08.439Z,1027.42
2017-10-19T08:34:08.437Z,1027.46
2017-10-19T08:35:08.429Z,1027.45
2017-10-19T08:36:08.424Z,1027.44
2017-10-19T08:37:08.419Z,1027.46
2017-10-19T08:38:08.412Z,1027.41
2017-10-19T08:39:08.406Z,1027.38
2017-10-19T08:40:08.403Z,1027.37
2017-10-19T08:41:08.396Z,1027.32
2017-10-19T08:42:08.392Z,1027.24
2017-10-19T08:43:08.388Z,1027.2
2017-10-19T08:44:08.383Z,1027.17
2017-10-19T08:45:08.378Z,1027.12
2017-10-19T08:46:08.376Z,1027.12
2017-10-19T08:47:08.367Z,1027.11
2017-10-19T08:48:08.365Z,1027.12
2017-10-19T08:49:08.356Z,1027.16
2017-10-19T08:50:08.355Z,1027.15
2017-10-19T08:51:08.347Z,1027.16
2017-10-19T08:52:08.342Z,1027.2
2017-10-19T08:53:08.336Z,1027.24
2017-10-19T08:54:08.331Z,1027.21
2017-10-19T08:55:08.327Z,1027.15
2017-10-19T08:56:08.321Z,1027.14
2017-10-19T08:57:08.318Z,1027.16
2017-10-19T08:58:08.311Z,1027.16
2017-10-19T08:59:08.306Z,1027.12
2017-10-19T09:00:08.306Z,1027.07
2017-10-19T09:01:08.296Z,1027.01
2017-10-19T09:02:08.293Z,1027
2017-10-19T09:03:08.289Z,1026.94
2017-10-19T09:04:08.283Z,1026.94
2017-10-19T09:05:08.280Z,1026.93
2017-10-19T09:06:08.273Z,1026.9
2017-10-19T09:07:08.269Z,1026.91
2017-10-19T09:08:08.263Z,1026.88
2017-10-19T09:09:08.259Z,1026.91
2017-10-19T09:10:08.260Z,1026.92
2017-10-19T09:11:08.253Z,1026.93
2017-10-19T09:12:08.246Z,1026.95
2017-10-19T09:13:08.242Z,1026.97
2017-10-19T09:14:08.237Z,1027.02
2017-10-19T09:15:08.231Z,1027.01
2017-10-19T09:16:08.233Z,1027.01
2017-10-19T09:17:08.223Z,1027.09
2017-10-19T09:18:08.221Z,1027.12
2017-10-19T09:19:08.215Z,1027.15
2017-10-19T09:20:08.211Z,1027.13
2017-10-19T09:21:08.207Z,1027.1
2017-10-19T09:22:08.202Z,1027.16
2017-10-19T09:23:08.199Z,1027.26
2017-10-19T09:24:08.199Z,1027.28
2017-10-19T09:25:08.190Z,1027.4
2017-10-19T09:26:08.190Z,1027.45
2017-10-19T09:27:08.182Z,1027.45
2017-10-19T09:28:08.182Z,1027.39
2017-10-19T09:29:08.170Z,1027.35
2017-10-19T09:30:08.167Z,1027.3
2017-10-19T09:31:08.162Z,1027.25
2017-10-19T09:32:08.157Z,1027.25
2017-10-19T09:33:08.153Z,1027.2
2017-10-19T09:34:08.149Z,1027.19
2017-10-19T09:35:08.344Z,1027.17
2017-10-19T09:36:08.139Z,1027.13
2017-10-19T09:37:08.137Z,1027.11
2017-10-19T09:38:08.130Z,1027.07
2017-10-19T09:39:08.131Z,1027.08
2017-10-19T09:40:08.121Z,1027.11
2017-10-19T09:41:08.116Z,1027.17
2017-10-19T09:42:08.114Z,1027.21
2017-10-19T09:43:08.106Z,1027.23
2017-10-19T09:44:08.102Z,1027.25
2017-10-19T09:45:08.104Z,1027.29
2017-10-19T09:46:08.095Z,1027.3
2017-10-19T09:47:08.089Z,1027.25
2017-10-19T09:48:08.083Z,1027.27
2017-10-19T09:49:08.078Z,1027.22
2017-10-19T09:50:08.076Z,1027.2
2017-10-19T09:51:08.072Z,1027.19
2017-10-19T09:52:08.071Z,1027.13
2017-10-19T09:53:08.060Z,1027.13
2017-10-19T09:54:08.056Z,1027.15
2017-10-19T09:55:08.052Z,1027.13
2017-10-19T09:56:08.047Z,1027.19
2017-10-19T09:57:08.043Z,1027.14
2017-10-19T09:58:08.041Z,1027.09
2017-10-19T09:59:08.035Z,1027.09
2017-10-19T10:00:08.031Z,1027.07
2017-10-19T10:01:08.027Z,1026.99
2017-10-19T10:02:08.023Z,1026.98
2017-10-19T10:03:08.017Z,1026.96
2017-10-19T10:04:08.018Z,1026.93
2017-10-19T10:05:08.009Z,1026.86
2017-10-19T10:06:08.010Z,1026.92
2017-10-19T10:07:08.001Z,1026.9
2017-10-19T10:08:07.997Z,1026.9
2017-10-19T10:09:07.992Z,1026.9
2017-10-19T10:10:07.986Z,1026.92
2017-10-19T10:11:07.982Z,1026.98
2017-10-19T10:12:07.977Z,1027.02
2017-10-19T10:13:07.974Z,1027.03
2017-10-19T10:14:07.969Z,1027.02
2017-10-19T10:15:07.966Z,1027.07
2017-10-19T10:16:07.961Z,1027.02
2017-10-19T10:17:07.957Z,1026.99
2017-10-19T10:18:07.954Z,1027
2017-10-19T10:19:07.951Z,1026.96
2017-10-19T10:20:07.950Z,1026.96
2017-10-19T10:21:07.948Z,1026.91
2017-10-19T10:22:07.937Z,1026.89
2017-10-19T10:23:07.933Z,1026.92
2017-10-19T10:24:07.929Z,1026.92
2017-10-19T10:25:07.924Z,1026.98
2017-10-19T10:26:07.922Z,1026.99
2017-10-19T10:27:07.918Z,1026.99
2017-10-19T10:28:07.913Z,1026.99
2017-10-19T10:29:07.909Z,1026.99
2017-10-19T10:30:07.904Z,1026.96
2017-10-19T10:31:07.899Z,1026.9
2017-10-19T10:32:07.896Z,1026.85
2017-10-19T10:33:07.893Z,1026.87
2017-10-19T10:34:07.889Z,1026.88
2017-10-19T10:35:07.885Z,1026.83
2017-10-19T10:36:07.880Z,1026.83
2017-10-19T10:37:07.877Z,1026.83
2017-10-19T10:38:07.873Z,1026.78
2017-10-19T10:39:07.867Z,1026.74
2017-10-19T10:40:07.862Z,1026.58
2017-10-19T10:41:07.859Z,1026.56
2017-10-19T10:42:07.856Z,1026.46
2017-10-19T10:43:07.852Z,1026.41
2017-10-19T10:44:07.848Z,1026.35
2017-10-19T10:45:07.844Z,1026.39
2017-10-19T10:46:07.840Z,1026.36
2017-10-19T10:47:07.836Z,1026.34
2017-10-19T10:48:07.832Z,1026.32
2017-10-19T10:49:07.828Z,1026.25
2017-10-19T10:50:07.826Z,1026.24
2017-10-19T10:51:07.822Z,1026.25
2017-10-19T10:52:07.818Z,1026.28
2017-10-19T10:53:07.815Z,1026.27
2017-10-19T10:54:07.810Z,1026.18
2017-10-19T10:55:07.805Z,1026.14
2017-10-19T10:56:07.803Z,1026.15
2017-10-19T10:57:07.800Z,1026.1
2017-10-19T10:58:07.796Z,1026.01
2017-10-19T10:59:07.793Z,1025.98
2017-10-19T11:00:07.791Z,1025.91
2017-10-19T11:01:07.785Z,1025.89
2017-10-19T11:02:07.780Z,1025.95
2017-10-19T11:03:07.778Z,1026.02
2017-10-19T11:04:07.774Z,1026.1
2017-10-19T11:05:07.771Z,1026.08
2017-10-19T11:06:07.766Z,1026.15
2017-10-19T11:07:07.764Z,1026.19
2017-10-19T11:08:07.760Z,1026.2
2017-10-19T11:09:07.756Z,1026.31
2017-10-19T11:10:07.755Z,1026.34
2017-10-19T11:11:07.751Z,1026.31
2017-10-19T11:12:07.747Z,1026.26
2017-10-19T11:13:07.744Z,1026.27
2017-10-19T11:14:07.739Z,1026.26
2017-10-19T11:15:07.735Z,1026.31
2017-10-19T11:16:07.732Z,1026.28
2017-10-19T11:17:07.728Z,1026.28
2017-10-19T11:18:07.727Z,1026.26
2017-10-19T11:19:07.723Z,1026.22
2017-10-19T11:20:07.719Z,1026.25
2017-10-19T11:21:07.715Z,1026.25
2017-10-19T11:22:07.711Z,1026.25
2017-10-19T11:23:07.706Z,1026.25
2017-10-19T11:24:07.705Z,1026.24
2017-10-19T11:25:07.701Z,1026.19
2017-10-19T11:26:07.701Z,1026.23
2017-10-19T11:27:07.695Z,1026.24
2017-10-19T11:28:07.691Z,1026.21
2017-10-19T11:29:07.687Z,1026.14
2017-10-19T11:30:07.684Z,1026.01
2017-10-19T11:31:07.680Z,1026
2017-10-19T11:32:07.676Z,1025.9
2017-10-19T11:33:07.674Z,1025.81
2017-10-19T11:34:07.668Z,1025.82
2017-10-19T11:35:07.667Z,1025.81
2017-10-19T11:36:07.662Z,1025.8
2017-10-19T11:37:07.659Z,1025.79
2017-10-19T11:38:07.655Z,1025.81
2017-10-19T11:39:07.653Z,1025.82
2017-10-19T11:40:07.650Z,1025.85
2017-10-19T11:41:07.646Z,1025.88
2017-10-19T11:42:07.644Z,1025.87
2017-10-19T11:43:07.645Z,1025.91
2017-10-19T11:44:07.636Z,1025.91
2017-10-19T11:45:07.637Z,1025.9
2017-10-19T11:46:07.630Z,1025.9
2017-10-19T11:47:07.626Z,1025.91
2017-10-19T11:48:07.624Z,1025.9
2017-10-19T11:49:07.620Z,1025.85
2017-10-19T11:50:07.615Z,1025.88
2017-10-19T11:51:07.613Z,1025.83
2017-10-19T11:52:07.609Z,1025.87
2017-10-19T11:53:07.607Z,1025.86
2017-10-19T11:54:07.614Z,1025.89
2017-10-19T11:55:07.602Z,1025.88
2017-10-19T11:56:07.596Z,1025.85
2017-10-19T11:57:07.592Z,1025.82
2017-10-19T11:58:07.591Z,1025.81
2017-10-19T11:59:07.590Z,1025.72
2017-10-19T12:00:07.593Z,1025.67
2017-10-19T12:01:07.583Z,1025.64
2017-10-19T12:02:07.580Z,1025.69
2017-10-19T12:03:07.573Z,1025.66
2017-10-19T12:04:07.570Z,1025.82
2017-10-19T12:05:07.568Z,1025.98
2017-10-19T12:06:07.567Z,1026.01
2017-10-19T12:07:07.562Z,1026.04
2017-10-19T12:08:07.558Z,1025.99